createdAt,value
2018-08-30T00:01:37.922Z,101013.52
2018-08-30T00:04:42.204Z,101011.05
2018-08-30T00:07:46.492Z,101009.40
2018-08-30T00:10:50.745Z,101007.47
2018-08-30T00:13:54.966Z,101007.98
2018-08-30T00:16:59.204Z,101015.40
2018-08-30T00:20:03.641Z,101008.25
2018-08-30T00:23:07.906Z,101009.87
2018-08-30T00:26:12.158Z,101007.66
2018-08-30T00:29:16.456Z,101017.00
2018-08-30T00:32:20.705Z,101016.73
2018-08-30T00:35:24.981Z,101017.52
2018-08-30T00:38:29.213Z,101017.25
2018-08-30T00:41:33.489Z,101010.30
2018-08-30T00:44:37.733Z,101013.33
2018-08-30T00:47:46.057Z,101017.73
2018-08-30T00:50:50.317Z,101021.55
2018-08-30T00:53:54.589Z,101022.90
2018-08-30T00:56:58.857Z,101032.52
2018-08-30T01:00:03.116Z,101024.00
2018-08-30T01:03:07.359Z,101027.56
2018-08-30T01:06:11.583Z,101024.54
2018-08-30T01:09:15.861Z,101024.00
2018-08-30T01:12:20.166Z,101017.39
2018-08-30T01:15:26.659Z,101015.45
2018-08-30T01:18:30.979Z,101013.50
2018-08-30T01:21:35.240Z,101019.84
2018-08-30T01:24:39.498Z,101014.88
2018-08-30T01:27:43.780Z,100999.19
2018-08-30T01:30:48.049Z,101000.56
2018-08-30T01:33:52.340Z,100996.67
2018-08-30T01:36:56.622Z,100999.15
2018-08-30T01:40:00.860Z,101001.06
2018-08-30T01:43:05.202Z,101009.87
2018-08-30T01:46:09.473Z,101015.34
2018-08-30T01:49:13.777Z,101016.98
2018-08-30T01:52:18.021Z,101018.89
2018-08-30T01:55:22.293Z,101014.20
2018-08-30T01:58:26.533Z,101013.66
2018-08-30T02:01:30.760Z,101016.95
2018-08-30T02:04:34.993Z,101008.16
2018-08-30T02:07:39.216Z,101008.97
2018-08-30T02:10:43.456Z,101007.59
2018-08-30T02:13:47.720Z,101010.88
2018-08-30T02:16:51.968Z,101011.41
2018-08-30T02:19:56.263Z,101008.12
2018-08-30T02:23:00.510Z,101008.12
2018-08-30T02:26:04.790Z,101017.73
2018-08-30T02:29:09.039Z,101019.38
2018-08-30T02:32:13.352Z,101012.52
2018-08-30T02:35:17.589Z,101015.56
2018-08-30T02:38:21.848Z,101020.77
2018-08-30T02:41:26.112Z,101019.11
2018-08-30T02:44:30.366Z,101026.25
2018-08-30T02:47:34.595Z,101020.76
2018-08-30T02:50:38.808Z,101026.25
2018-08-30T02:53:43.155Z,101022.67
2018-08-30T02:56:47.389Z,101027.90
2018-08-30T02:59:51.692Z,101022.12
2018-08-30T03:02:55.953Z,101025.98
2018-08-30T03:06:00.183Z,101026.25
2018-08-30T03:09:05.551Z,101032.82
2018-08-30T03:12:09.785Z,101027.32
2018-08-30T03:15:14.993Z,101035.56
2018-08-30T03:18:19.236Z,101029.50
2018-08-30T03:21:23.472Z,101039.69
2018-08-30T03:24:27.759Z,101039.38
2018-08-30T03:27:32.044Z,101039.95
2018-08-30T03:30:36.390Z,101047.09
2018-08-30T03:33:40.578Z,101046.25
2018-08-30T03:36:44.869Z,101047.05
2018-08-30T03:39:49.252Z,101053.38
2018-08-30T03:42:53.492Z,101047.57
2018-08-30T03:45:57.701Z,101051.42
2018-08-30T03:49:01.984Z,101059.67
2018-08-30T03:52:06.268Z,101058.55
2018-08-30T03:55:10.573Z,101059.09
2018-08-30T03:58:14.767Z,101064.59
2018-08-30T04:01:19.006Z,101059.89
2018-08-30T04:04:23.255Z,101057.13
2018-08-30T04:07:27.492Z,101058.77
2018-08-30T04:10:31.748Z,101049.65
2018-08-30T04:13:36.018Z,101058.69
2018-08-30T04:16:40.244Z,101061.13
2018-08-30T04:19:44.449Z,101061.65
2018-08-30T04:22:48.693Z,101061.07
2018-08-30T04:25:52.964Z,101064.66
2018-08-30T04:28:57.218Z,101063.28
2018-08-30T04:32:01.441Z,101070.94
2018-08-30T04:35:05.719Z,101070.09
2018-08-30T04:38:09.945Z,101076.69
2018-08-30T04:41:14.217Z,101072.56
2018-08-30T04:44:18.448Z,101079.12
2018-08-30T04:47:22.692Z,101081.06
2018-08-30T04:50:26.960Z,101079.12
2018-08-30T04:53:31.161Z,101083.23
2018-08-30T04:56:35.401Z,101084.87
2018-08-30T04:59:39.649Z,101080.75
2018-08-30T05:02:44.204Z,101084.03
2018-08-30T05:05:48.467Z,101087.87
2018-08-30T05:08:52.696Z,101090.06
2018-08-30T05:11:56.947Z,101094.17
2018-08-30T05:15:01.153Z,101094.74
2018-08-30T05:18:05.370Z,101102.14
2018-08-30T05:21:09.597Z,101100.23
2018-08-30T05:24:13.853Z,101104.62
2018-08-30T05:27:18.097Z,101107.05
2018-08-30T05:30:22.332Z,101108.67
2018-08-30T05:33:26.561Z,101107.24
2018-08-30T05:36:30.780Z,101109.39
2018-08-30T05:39:35.038Z,101108.28
2018-08-30T05:42:39.236Z,101103.05
2018-08-30T05:45:43.498Z,101107.95
2018-08-30T05:48:47.704Z,101101.40
2018-08-30T05:51:51.921Z,101106.31
2018-08-30T05:54:56.180Z,101100.81
2018-08-30T05:58:00.382Z,101097.81
2018-08-30T06:01:04.643Z,101097.83
2018-08-30T06:04:08.929Z,101101.41
2018-08-30T06:07:13.393Z,101105.81
2018-08-30T06:10:17.620Z,101103.06
2018-08-30T06:13:21.889Z,101105.29
2018-08-30T06:16:26.089Z,101102.80
2018-08-30T06:19:30.405Z,101103.12
2018-08-30T06:22:34.636Z,101104.76
2018-08-30T06:25:38.943Z,101108.08
2018-08-30T06:28:43.209Z,101114.95
2018-08-30T06:31:47.466Z,101119.06
2018-08-30T06:34:51.791Z,101120.72
2018-08-30T06:37:55.992Z,101128.42
2018-08-30T06:41:00.245Z,101125.41
2018-08-30T06:44:04.504Z,101130.38
2018-08-30T06:47:08.729Z,101139.14
2018-08-30T06:50:12.968Z,101145.48
2018-08-30T06:53:17.178Z,101151.52
2018-08-30T06:56:21.456Z,101151.71
2018-08-30T06:59:25.684Z,101157.77
2018-08-30T07:02:29.966Z,101157.19
2018-08-30T07:05:34.200Z,101160.19
2018-08-30T07:08:38.436Z,101160.70
2018-08-30T07:11:42.704Z,101164.55
2018-08-30T07:14:46.983Z,101160.13
2018-08-30T07:17:51.217Z,101161.22
2018-08-30T07:20:55.454Z,101163.44
2018-08-30T07:23:59.697Z,101165.92
2018-08-30T07:27:03.913Z,101163.44
2018-08-30T07:30:11.793Z,101167.83
2018-08-30T07:33:16.083Z,101175.80
2018-08-30T07:36:20.313Z,101170.58
2018-08-30T07:39:24.513Z,101176.09
2018-08-30T07:42:28.749Z,101171.44
2018-08-30T07:45:33.005Z,101175.87
2018-08-30T07:48:37.297Z,101183.26
2018-08-30T07:51:41.514Z,101187.12
2018-08-30T07:54:45.739Z,101198.56
2018-08-30T07:57:50.016Z,101199.15
2018-08-30T08:00:54.209Z,101199.38
2018-08-30T08:03:58.544Z,101203.50
2018-08-30T08:07:04.868Z,101203.20
2018-08-30T08:10:09.225Z,101205.94
2018-08-30T08:13:14.544Z,101212.00
2018-08-30T08:16:18.878Z,101212.98
2018-08-30T08:19:23.118Z,101209.18
2018-08-30T08:22:27.428Z,101219.58
2018-08-30T08:25:31.642Z,101220.95
2018-08-30T08:28:35.913Z,101222.06
2018-08-30T08:31:40.153Z,101224.02
2018-08-30T08:34:44.385Z,101235.33
2018-08-30T08:37:48.613Z,101232.28
2018-08-30T08:40:52.860Z,101243.57
2018-08-30T08:43:57.107Z,101245.42
2018-08-30T08:47:01.374Z,101244.03
2018-08-30T08:50:08.072Z,101250.36
2018-08-30T08:53:13.366Z,101253.91
2018-08-30T08:56:17.773Z,101259.10
2018-08-30T08:59:23.397Z,101258.01
2018-08-30T09:02:27.676Z,101257.17
2018-08-30T09:05:32.018Z,101259.05
2018-08-30T09:08:36.262Z,101259.61
2018-08-30T09:11:41.029Z,101263.98
2018-08-30T09:14:45.253Z,101260.06
2018-08-30T09:17:49.472Z,101261.41
2018-08-30T09:20:53.813Z,101266.09
2018-08-30T09:23:58.069Z,101266.34
2018-08-30T09:27:02.371Z,101272.92
2018-08-30T09:30:06.654Z,101268.27
2018-08-30T09:33:10.897Z,101282.78
2018-08-30T09:36:15.129Z,101287.69
2018-08-30T09:39:19.456Z,101294.27
2018-08-30T09:42:23.748Z,101295.89
2018-08-30T09:45:28.031Z,101299.12
2018-08-30T09:48:32.229Z,101308.07
2018-08-30T09:51:36.444Z,101302.30
2018-08-30T09:54:40.728Z,101304.16
2018-08-30T09:57:44.937Z,101314.56
2018-08-30T10:00:54.532Z,101316.75
2018-08-30T10:03:58.851Z,101320.05
2018-08-30T10:07:03.037Z,101325.26
2018-08-30T10:10:08.081Z,101321.89
2018-08-30T10:13:12.376Z,101327.41
2018-08-30T10:16:16.605Z,101330.38
2018-08-30T10:19:20.909Z,101336.67
2018-08-30T10:22:25.190Z,101333.39
2018-08-30T10:25:30.197Z,101342.16
2018-08-30T10:28:34.434Z,101341.09
2018-08-30T10:31:38.764Z,101342.50
2018-08-30T10:34:43.073Z,101339.81
2018-08-30T10:37:47.429Z,101342.75
2018-08-30T10:40:51.681Z,101344.38
2018-08-30T10:43:56.018Z,101343.13
2018-08-30T10:47:00.262Z,101349.45
2018-08-30T10:50:04.540Z,101356.22
2018-08-30T10:53:08.776Z,101361.36
2018-08-30T10:56:13.053Z,101359.09
2018-08-30T10:59:17.307Z,101364.57
2018-08-30T11:02:21.872Z,101372.23
2018-08-30T11:05:26.242Z,101375.77
2018-08-30T11:08:30.461Z,101379.63
2018-08-30T11:11:34.674Z,101376.88
2018-08-30T11:14:38.910Z,101381.84
2018-08-30T11:17:43.164Z,101389.77
2018-08-30T11:20:47.429Z,101392.25
2018-08-30T11:23:51.693Z,101395.84
2018-08-30T11:26:55.909Z,101400.48
2018-08-30T11:30:00.129Z,101397.18
2018-08-30T11:33:04.381Z,101403.79
2018-08-30T11:36:08.645Z,101401.92
2018-08-30T11:39:12.885Z,101405.82
2018-08-30T11:42:17.112Z,101412.96
2018-08-30T11:45:21.340Z,101409.72
2018-08-30T11:48:25.581Z,101413.55
2018-08-30T11:51:29.849Z,101422.70
2018-08-30T11:54:34.046Z,101426.41
2018-08-30T11:57:38.302Z,101431.38
2018-08-30T12:00:42.549Z,101439.11
2018-08-30T12:03:47.124Z,101432.25
2018-08-30T12:06:51.400Z,101436.70
2018-08-30T12:09:56.845Z,101439.86
2018-08-30T12:13:00.123Z,101442.10
2018-08-30T12:16:04.344Z,101448.16
2018-08-30T12:19:08.560Z,101446.22
2018-08-30T12:22:12.766Z,101442.10
2018-08-30T12:25:16.972Z,101445.69
2018-08-30T12:28:21.236Z,101442.70
2018-08-30T12:31:25.477Z,101442.17
2018-08-30T12:34:29.732Z,101440.45
2018-08-30T12:37:33.944Z,101446.28
2018-08-30T12:40:38.160Z,101450.22
2018-08-30T12:43:42.418Z,101454.08
2018-08-30T12:46:46.745Z,101453.55
2018-08-30T12:49:50.968Z,101452.45
2018-08-30T12:52:55.267Z,101458.05
2018-08-30T12:55:59.535Z,101458.60
2018-08-30T12:59:08.872Z,101461.66
2018-08-30T13:02:13.189Z,101465.50
2018-08-30T13:05:17.594Z,101462.84
2018-08-30T13:08:21.826Z,101466.71
2018-08-30T13:11:26.003Z,101464.84
2018-08-30T13:14:30.470Z,101459.34
2018-08-30T13:17:34.635Z,101461.06
2018-08-30T13:20:38.931Z,101469.83
2018-08-30T13:23:43.161Z,101462.73
2018-08-30T13:26:47.449Z,101468.07
2018-08-30T13:29:51.772Z,101471.41
2018-08-30T13:32:56.237Z,101465.41
2018-08-30T13:36:00.315Z,101465.44
2018-08-30T13:39:05.716Z,101470.17
2018-08-30T13:42:09.912Z,101473.62
2018-08-30T13:45:13.992Z,101469.95
2018-08-30T13:48:18.349Z,101475.06
2018-08-30T13:51:22.511Z,101475.80
2018-08-30T13:54:26.840Z,101471.27
2018-08-30T13:57:31.084Z,101470.23
2018-08-30T14:00:35.676Z,101475.55
2018-08-30T14:03:39.461Z,101479.42
2018-08-30T14:06:43.616Z,101480.80
2018-08-30T14:09:47.835Z,101485.51
2018-08-30T14:12:52.011Z,101485.55
2018-08-30T14:15:56.056Z,101486.22
2018-08-30T14:19:00.283Z,101490.44
2018-08-30T14:22:04.619Z,101486.97
2018-08-30T14:25:08.841Z,101484.59
2018-08-30T14:28:13.037Z,101486.89
2018-08-30T14:31:17.281Z,101488.92
2018-08-30T14:34:21.641Z,101487.94
2018-08-30T14:37:25.884Z,101485.06
2018-08-30T14:40:30.186Z,101489.98
2018-08-30T14:43:34.356Z,101488.80
2018-08-30T14:46:38.666Z,101489.78
2018-08-30T14:49:42.850Z,101489.88
2018-08-30T14:52:47.055Z,101494.39
2018-08-30T14:55:51.236Z,101494.42
2018-08-30T14:58:55.496Z,101496.64
2018-08-30T15:01:59.716Z,101497.72
2018-08-30T15:05:03.993Z,101504.88
2018-08-30T15:08:08.138Z,101511.78
2018-08-30T15:11:12.475Z,101519.22
2018-08-30T15:14:16.676Z,101521.67
2018-08-30T15:17:20.906Z,101529.67
2018-08-30T15:20:25.167Z,101526.11
2018-08-30T15:23:29.470Z,101534.97
2018-08-30T15:26:33.698Z,101535.23
2018-08-30T15:29:37.981Z,101539.91
2018-08-30T15:32:42.198Z,101541.81
2018-08-30T15:35:46.409Z,101543.16
2018-08-30T15:38:50.633Z,101547.57
2018-08-30T15:41:54.829Z,101549.30
2018-08-30T15:44:59.073Z,101547.72
2018-08-30T15:48:03.398Z,101549.48
2018-08-30T15:51:07.845Z,101561.16
2018-08-30T15:54:12.090Z,101559.77
2018-08-30T15:57:16.328Z,101560.07
2018-08-30T16:00:20.533Z,101565.05
2018-08-30T16:03:24.773Z,101568.08
2018-08-30T16:06:28.961Z,101558.98
2018-08-30T16:09:33.174Z,101568.66
2018-08-30T16:12:37.454Z,101569.67
2018-08-30T16:15:41.756Z,101574.31
2018-08-30T16:18:45.919Z,101574.25
2018-08-30T16:21:50.207Z,101571.45
2018-08-30T16:24:54.489Z,101578.48
2018-08-30T16:27:58.617Z,101581.31
2018-08-30T16:31:02.809Z,101583.58
2018-08-30T16:34:07.095Z,101587.48
2018-08-30T16:37:11.358Z,101598.83
2018-08-30T16:40:15.554Z,101593.95
2018-08-30T16:43:19.756Z,101603.23
2018-08-30T16:46:23.964Z,101602.25
2018-08-30T16:49:28.177Z,101605.42
2018-08-30T16:52:32.410Z,101605.91
2018-08-30T16:55:37.199Z,101608.47
2018-08-30T16:58:41.148Z,101615.75
2018-08-30T17:01:45.377Z,101624.05
2018-08-30T17:04:49.596Z,101625.22
2018-08-30T17:07:53.793Z,101628.63
2018-08-30T17:10:58.018Z,101628.06
2018-08-30T17:14:02.210Z,101626.78
2018-08-30T17:17:06.456Z,101636.58
2018-08-30T17:20:17.481Z,101632.95
2018-08-30T17:23:21.720Z,101632.02
2018-08-30T17:26:26.025Z,101634.87
2018-08-30T17:29:30.169Z,101630.86
2018-08-30T17:32:34.399Z,101641.45
2018-08-30T17:35:38.645Z,101641.84
2018-08-30T17:38:42.853Z,101638.45
2018-08-30T17:41:47.061Z,101638.27
2018-08-30T17:44:51.264Z,101645.55
2018-08-30T17:47:55.514Z,101652.78
2018-08-30T17:50:59.737Z,101658.11
2018-08-30T17:54:03.924Z,101662.80
2018-08-30T17:57:08.148Z,101666.19
2018-08-30T18:00:13.587Z,101670.74
2018-08-30T18:03:17.813Z,101669.20
2018-08-30T18:06:22.028Z,101669.92
2018-08-30T18:09:26.249Z,101677.30
2018-08-30T18:12:30.506Z,101685.34
2018-08-30T18:15:34.720Z,101681.47
2018-08-30T18:18:38.920Z,101692.25
2018-08-30T18:21:43.172Z,101694.86
2018-08-30T18:24:47.379Z,101701.05
2018-08-30T18:27:51.630Z,101708.32
2018-08-30T18:30:55.817Z,101710.37
2018-08-30T18:34:00.113Z,101712.39
2018-08-30T18:37:04.322Z,101715.70
2018-08-30T18:40:09.449Z,101719.38
2018-08-30T18:43:13.674Z,101718.00
2018-08-30T18:46:17.979Z,101721.20
2018-08-30T18:49:22.194Z,101726.22
2018-08-30T18:52:26.417Z,101729.89
2018-08-30T18:55:30.673Z,101735.22
2018-08-30T18:58:34.877Z,101738.95
2018-08-30T19:01:39.075Z,101748.77
2018-08-30T19:04:43.361Z,101750.15
2018-08-30T19:07:47.608Z,101752.50
2018-08-30T19:10:51.900Z,101755.64
2018-08-30T19:13:56.110Z,101757.59
2018-08-30T19:17:05.556Z,101761.56
2018-08-30T19:20:09.774Z,101763.98
2018-08-30T19:23:13.977Z,101762.31
2018-08-30T19:26:18.325Z,101759.98
2018-08-30T19:29:22.524Z,101765.20
2018-08-30T19:32:26.747Z,101766.27
2018-08-30T19:35:36.149Z,101764.45
2018-08-30T19:38:40.363Z,101766.51
2018-08-30T19:41:44.589Z,101765.89
2018-08-30T19:44:48.821Z,101762.47
2018-08-30T19:47:53.009Z,101758.59
2018-08-30T19:50:57.222Z,101772.96
2018-08-30T19:54:01.430Z,101771.27
2018-08-30T19:57:05.684Z,101772.95
2018-08-30T20:00:09.904Z,101776.05
2018-08-30T20:03:14.120Z,101774.45
2018-08-30T20:06:18.297Z,101767.08
2018-08-30T20:09:22.594Z,101771.82
2018-08-30T20:12:26.739Z,101776.48
2018-08-30T20:15:30.960Z,101778.19
2018-08-30T20:18:35.208Z,101775.61
2018-08-30T20:21:39.424Z,101777.28
2018-08-30T20:24:44.520Z,101783.38
2018-08-30T20:27:48.771Z,101784.80
2018-08-30T20:30:52.986Z,101786.84
2018-08-30T20:33:57.212Z,101784.08
2018-08-30T20:37:01.436Z,101787.03
2018-08-30T20:40:05.665Z,101787.55
2018-08-30T20:43:09.878Z,101781.61
2018-08-30T20:46:14.107Z,101784.97
2018-08-30T20:49:18.327Z,101782.38
2018-08-30T20:52:22.540Z,101788.19
2018-08-30T20:55:26.789Z,101788.11
2018-08-30T20:58:30.976Z,101786.86
2018-08-30T21:01:35.233Z,101786.16
2018-08-30T21:04:39.448Z,101785.53
2018-08-30T21:07:43.648Z,101795.23
2018-08-30T21:10:47.870Z,101789.77
2018-08-30T21:13:52.068Z,101795.67
2018-08-30T21:16:56.273Z,101795.05
2018-08-30T21:20:00.501Z,101792.76
2018-08-30T21:23:04.809Z,101791.75
2018-08-30T21:26:09.516Z,101794.78
2018-08-30T21:29:13.720Z,101794.78
2018-08-30T21:32:17.921Z,101802.67
2018-08-30T21:35:22.156Z,101800.16
2018-08-30T21:38:26.361Z,101809.95
2018-08-30T21:41:30.585Z,101809.61
2018-08-30T21:44:34.793Z,101810.90
2018-08-30T21:47:39.020Z,101809.75
2018-08-30T21:50:43.233Z,101811.41
2018-08-30T21:53:47.445Z,101811.20
2018-08-30T21:56:51.657Z,101815.84
2018-08-30T21:59:55.874Z,101820.45
2018-08-30T22:03:00.100Z,101819.31
2018-08-30T22:06:04.316Z,101821.62
2018-08-30T22:09:10.677Z,101819.03
2018-08-30T22:12:14.868Z,101819.14
2018-08-30T22:15:19.077Z,101816.77
2018-08-30T22:18:23.294Z,101816.27
2018-08-30T22:21:27.492Z,101820.58
2018-08-30T22:24:31.684Z,101814.70
2018-08-30T22:27:35.903Z,101815.14
2018-08-30T22:30:40.129Z,101815.23
2018-08-30T22:33:44.350Z,101810.84
2018-08-30T22:36:48.572Z,101813.06
2018-08-30T22:39:52.795Z,101812.23
2018-08-30T22:42:57.021Z,101815.72
2018-08-30T22:46:01.240Z,101820.11
2018-08-30T22:49:05.625Z,101817.90
2018-08-30T22:52:09.851Z,101816.02
2018-08-30T22:55:14.062Z,101821.91
2018-08-30T22:58:18.292Z,101826.83
2018-08-30T23:01:22.492Z,101830.37
2018-08-30T23:04:26.740Z,101831.44
2018-08-30T23:07:30.937Z,101829.05
2018-08-30T23:10:35.148Z,101828.72
2018-08-30T23:13:39.357Z,101827.35
2018-08-30T23:16:43.573Z,101820.23
2018-08-30T23:19:47.792Z,101819.93
2018-08-30T23:22:52.049Z,101823.17
2018-08-30T23:25:56.290Z,101821.38
2018-08-30T23:29:00.489Z,101822.02
2018-08-30T23:32:04.741Z,101822.96
2018-08-30T23:35:08.941Z,101819.72
2018-08-30T23:38:13.141Z,101819.17
2018-08-30T23:41:17.344Z,101823.59
2018-08-30T23:44:21.561Z,101818.14
2018-08-30T23:47:25.780Z,101820.66
2018-08-30T23:50:29.976Z,101814.57
2018-08-30T23:53:34.172Z,101815.94
2018-08-30T23:56:38.379Z,101821.52
2018-08-30T23:59:59.580Z,101817.30
